createdAt,value
2023-05-12T00:00:22.468Z,51.67
2023-05-12T00:01:24.468Z,52.19
2023-05-12T00:02:27.969Z,52.22
2023-05-12T00:03:29.959Z,52.35
2023-05-12T00:04:32.963Z,51.72
2023-05-12T00:05:35.004Z,52.24
2023-05-12T00:06:37.948Z,52.66
2023-05-12T00:07:40.426Z,52.44
2023-05-12T00:08:43.504Z,52.14
2023-05-12T00:09:47.123Z,52.26
2023-05-12T00:10:49.960Z,52.20
2023-05-12T00:11:53.943Z,52.75
2023-05-12T00:12:59.580Z,52.59
2023-05-12T00:14:02.772Z,52.61
2023-05-12T00:15:06.560Z,52.78
2023-05-12T00:16:08.927Z,52.82
2023-05-12T00:17:15.344Z,53.01
2023-05-12T00:18:17.711Z,52.81
2023-05-12T00:19:21.096Z,53.19
2023-05-12T00:20:23.271Z,52.75
2023-05-12T00:21:26.076Z,53.11
2023-05-12T00:22:27.886Z,52.72
2023-05-12T00:23:31.417Z,52.93
2023-05-12T00:24:33.315Z,53.01
2023-05-12T00:25:36.087Z,52.79
2023-05-12T00:26:40.209Z,52.86
2023-05-12T00:27:43.102Z,52.86
2023-05-12T00:28:45.240Z,52.81
2023-05-12T00:29:49.369Z,53.10
2023-05-12T00:30:51.256Z,53.33
2023-05-12T00:31:54.691Z,53.64
2023-05-12T00:32:59.745Z,53.80
2023-05-12T00:34:05.386Z,53.86
2023-05-12T00:35:07.928Z,54.09
2023-05-12T00:36:10.888Z,53.97
2023-05-12T00:37:13.860Z,54.09
2023-05-12T00:38:16.930Z,54.11
2023-05-12T00:39:18.771Z,54.12
2023-05-12T00:40:21.855Z,54.30
2023-05-12T00:41:24.623Z,54.42
2023-05-12T00:42:27.587Z,54.79
2023-05-12T00:43:29.474Z,54.37
2023-05-12T00:44:32.521Z,54.40
2023-05-12T00:45:36.836Z,54.74
2023-05-12T00:46:40.064Z,54.71
2023-05-12T00:47:42.078Z,54.84
2023-05-12T00:48:46.210Z,54.99
2023-05-12T00:49:48.066Z,54.95
2023-05-12T00:50:50.846Z,55.04
2023-05-12T00:51:54.599Z,55.29
2023-05-12T00:52:58.107Z,54.85
2023-05-12T00:53:59.893Z,55.25
2023-05-12T00:55:03.494Z,55.37
2023-05-12T00:56:05.573Z,55.27
2023-05-12T00:57:08.306Z,55.47
2023-05-12T00:58:10.111Z,55.56
2023-05-12T00:59:13.078Z,55.56
2023-05-12T01:00:19.154Z,55.66
2023-05-12T01:01:24.657Z,55.66
2023-05-12T01:02:30.326Z,55.61
2023-05-12T01:03:32.927Z,55.36
2023-05-12T01:04:40.462Z,55.26
2023-05-12T01:05:54.446Z,55.47
2023-05-12T01:06:59.686Z,55.33
2023-05-12T01:08:01.702Z,55.66
2023-05-12T01:09:05.157Z,55.49
2023-05-12T01:10:20.968Z,55.79
2023-05-12T01:11:24.697Z,55.90
2023-05-12T01:12:28.025Z,56.25
2023-05-12T01:13:31.523Z,56.21
2023-05-12T01:14:34.176Z,56.05
2023-05-12T01:15:37.842Z,56.07
2023-05-12T01:16:47.491Z,55.99
2023-05-12T01:17:55.174Z,55.86
2023-05-12T01:18:57.381Z,55.73
2023-05-12T01:20:05.460Z,56.09
2023-05-12T01:21:08.181Z,56.18
2023-05-12T01:22:12.276Z,56.20
2023-05-12T01:23:17.529Z,56.22
2023-05-12T01:24:21.745Z,55.99
2023-05-12T01:25:24.486Z,56.02
2023-05-12T01:26:29.771Z,56.21
2023-05-12T01:27:33.480Z,56.16
2023-05-12T01:28:38.102Z,55.80
2023-05-12T01:29:42.438Z,56.13
2023-05-12T01:30:45.981Z,55.89
2023-05-12T01:31:49.147Z,56.17
2023-05-12T01:32:53.269Z,55.90
2023-05-12T01:33:55.535Z,55.95
2023-05-12T01:35:01.588Z,56.34
2023-05-12T01:36:06.498Z,56.27
2023-05-12T01:37:12.614Z,55.97
2023-05-12T01:38:16.943Z,56.22
2023-05-12T01:39:19.848Z,56.26
2023-05-12T01:40:22.180Z,56.14
2023-05-12T01:41:27.867Z,56.22
2023-05-12T01:42:29.724Z,56.12
2023-05-12T01:43:32.988Z,56.48
2023-05-12T01:44:35.244Z,56.48
2023-05-12T01:45:38.638Z,56.44
2023-05-12T01:46:40.890Z,56.21
2023-05-12T01:47:47.423Z,56.52
2023-05-12T01:48:52.161Z,56.63
2023-05-12T01:49:54.967Z,56.63
2023-05-12T01:51:02.726Z,56.62
2023-05-12T01:52:06.356Z,56.74
2023-05-12T01:53:10.322Z,56.89
2023-05-12T01:54:13.377Z,56.64
2023-05-12T01:55:16.519Z,56.74
2023-05-12T01:56:30.295Z,56.85
2023-05-12T01:58:07.622Z,56.78
2023-05-12T01:59:10.864Z,57.03
2023-05-12T02:00:13.887Z,56.76
2023-05-12T02:01:16.734Z,56.68
2023-05-12T02:02:18.794Z,57.10
2023-05-12T02:03:21.775Z,57.34
2023-05-12T02:04:23.788Z,57.02
2023-05-12T02:05:26.770Z,56.98
2023-05-12T02:06:29.194Z,56.98
2023-05-12T02:07:32.756Z,57.06
2023-05-12T02:08:34.600Z,57.50
2023-05-12T02:09:37.576Z,57.65
2023-05-12T02:10:39.495Z,57.29
2023-05-12T02:11:43.870Z,57.17
2023-05-12T02:12:45.645Z,57.23
2023-05-12T02:13:48.771Z,57.86
2023-05-12T02:14:50.650Z,57.42
2023-05-12T02:15:53.804Z,57.58
2023-05-12T02:16:56.338Z,57.76
2023-05-12T02:18:01.186Z,57.88
2023-05-12T02:19:03.153Z,57.32
2023-05-12T02:20:09.505Z,57.58
2023-05-12T02:21:11.351Z,57.53
2023-05-12T02:22:14.179Z,57.87
2023-05-12T02:23:16.179Z,57.60
2023-05-12T02:24:21.205Z,58.11
2023-05-12T02:25:23.100Z,58.23
2023-05-12T02:26:26.507Z,57.96
2023-05-12T02:27:32.472Z,58.08
2023-05-12T02:28:35.494Z,58.24
2023-05-12T02:29:38.084Z,58.56
2023-05-12T02:30:45.962Z,58.07
2023-05-12T02:31:48.231Z,58.61
2023-05-12T02:32:52.877Z,58.82
2023-05-12T02:33:54.843Z,58.48
2023-05-12T02:34:58.109Z,58.29
2023-05-12T02:36:00.330Z,58.22
2023-05-12T02:37:03.603Z,58.81
2023-05-12T02:38:05.581Z,58.49
2023-05-12T02:39:08.944Z,59.19
2023-05-12T02:40:11.734Z,59.41
2023-05-12T02:41:15.801Z,59.28
2023-05-12T02:42:17.622Z,58.98
2023-05-12T02:43:21.936Z,58.88
2023-05-12T02:44:23.811Z,58.87
2023-05-12T02:45:26.872Z,59.62
2023-05-12T02:46:29.387Z,59.16
2023-05-12T02:47:33.053Z,59.86
2023-05-12T02:48:35.025Z,59.69
2023-05-12T02:49:37.880Z,59.98
2023-05-12T02:50:39.823Z,60.00
2023-05-12T02:51:42.724Z,60.12
2023-05-12T02:52:44.560Z,59.92
2023-05-12T02:53:47.354Z,59.52
2023-05-12T02:54:49.171Z,59.59
2023-05-12T02:55:52.045Z,59.96
2023-05-12T02:56:54.471Z,59.80
2023-05-12T02:57:57.381Z,60.05
2023-05-12T02:59:01.058Z,59.61
2023-05-12T03:00:06.110Z,59.61
2023-05-12T03:01:11.862Z,60.05
2023-05-12T03:02:16.742Z,60.18
2023-05-12T03:03:18.857Z,60.33
2023-05-12T03:04:22.191Z,60.47
2023-05-12T03:05:24.183Z,60.15
2023-05-12T03:06:27.164Z,60.22
2023-05-12T03:07:29.546Z,60.53
2023-05-12T03:08:32.894Z,59.96
2023-05-12T03:09:34.750Z,59.99
2023-05-12T03:10:37.709Z,60.48
2023-05-12T03:11:39.510Z,60.09
2023-05-12T03:12:42.391Z,60.53
2023-05-12T03:13:44.260Z,59.90
2023-05-12T03:14:48.559Z,60.19
2023-05-12T03:15:50.435Z,59.98
2023-05-12T03:16:53.258Z,60.17
2023-05-12T03:17:55.129Z,60.17
2023-05-12T03:18:58.085Z,60.78
2023-05-12T03:19:59.967Z,60.35
2023-05-12T03:21:03.654Z,59.81
2023-05-12T03:22:07.219Z,60.13
2023-05-12T03:23:10.482Z,60.10
2023-05-12T03:24:12.495Z,60.06
2023-05-12T03:25:15.713Z,59.91
2023-05-12T03:26:18.391Z,60.11
2023-05-12T03:27:21.835Z,60.10
2023-05-12T03:28:24.703Z,60.24
2023-05-12T03:29:27.883Z,60.13
2023-05-12T03:30:31.137Z,60.22
2023-05-12T03:31:33.942Z,60.56
2023-05-12T03:32:35.792Z,60.36
2023-05-12T03:33:38.623Z,60.37
2023-05-12T03:34:40.749Z,60.94
2023-05-12T03:35:44.445Z,60.93
2023-05-12T03:36:47.323Z,60.41
2023-05-12T03:37:49.129Z,60.66
2023-05-12T03:38:51.912Z,60.55
2023-05-12T03:39:56.092Z,60.50
2023-05-12T03:41:05.064Z,60.30
2023-05-12T03:42:07.499Z,60.43
2023-05-12T03:43:10.334Z,60.41
2023-05-12T03:44:12.340Z,60.36
2023-05-12T03:45:15.494Z,60.41
2023-05-12T03:46:18.813Z,60.17
2023-05-12T03:47:21.827Z,60.74
2023-05-12T03:48:23.903Z,60.75
2023-05-12T03:49:26.744Z,60.64
2023-05-12T03:50:28.538Z,60.90
2023-05-12T03:51:31.507Z,60.61
2023-05-12T03:52:33.491Z,60.57
2023-05-12T03:53:37.516Z,60.93
2023-05-12T03:54:39.343Z,60.54
2023-05-12T03:55:42.169Z,60.45
2023-05-12T03:56:45.130Z,60.41
2023-05-12T03:57:49.141Z,60.37
2023-05-12T03:58:51.456Z,60.19
2023-05-12T03:59:54.198Z,60.11
2023-05-12T04:00:56.801Z,59.61
2023-05-12T04:02:01.687Z,59.45
2023-05-12T04:03:03.708Z,59.12
2023-05-12T04:04:06.611Z,58.95
2023-05-12T04:05:09.982Z,58.78
2023-05-12T04:06:13.085Z,58.56
2023-05-12T04:07:14.981Z,58.58
2023-05-12T04:08:17.897Z,58.57
2023-05-12T04:09:21.261Z,58.22
2023-05-12T04:10:23.993Z,58.05
2023-05-12T04:11:25.842Z,57.90
2023-05-12T04:12:28.656Z,57.35
2023-05-12T04:13:31.818Z,57.27
2023-05-12T04:14:42.299Z,57.17
2023-05-12T04:15:44.903Z,56.82
2023-05-12T04:16:48.361Z,56.78
2023-05-12T04:17:51.990Z,56.66
2023-05-12T04:18:57.351Z,56.92
2023-05-12T04:19:59.323Z,56.69
2023-05-12T04:21:02.574Z,56.14
2023-05-12T04:22:04.737Z,55.90
2023-05-12T04:23:07.727Z,56.24
2023-05-12T04:24:10.650Z,56.34
2023-05-12T04:25:13.895Z,56.02
2023-05-12T04:26:16.343Z,55.69
2023-05-12T04:27:19.261Z,55.80
2023-05-12T04:28:21.360Z,56.19
2023-05-12T04:29:24.482Z,56.28
2023-05-12T04:30:26.355Z,55.11
2023-05-12T04:31:29.472Z,55.38
2023-05-12T04:32:32.837Z,55.71
2023-05-12T04:33:37.843Z,55.38
2023-05-12T04:34:40.476Z,55.22
2023-05-12T04:35:43.507Z,55.51
2023-05-12T04:36:47.208Z,54.75
2023-05-12T04:37:50.164Z,54.99
2023-05-12T04:38:52.089Z,54.82
2023-05-12T04:39:55.105Z,54.96
2023-05-12T04:40:59.878Z,54.89
2023-05-12T04:42:03.080Z,54.84
2023-05-12T04:43:07.545Z,54.16
2023-05-12T04:44:10.367Z,54.54
2023-05-12T04:45:12.326Z,54.02
2023-05-12T04:46:15.329Z,54.15
2023-05-12T04:47:17.162Z,53.85
2023-05-12T04:48:19.912Z,54.07
2023-05-12T04:49:23.146Z,53.49
2023-05-12T04:50:25.897Z,53.33
2023-05-12T04:51:27.665Z,53.18
2023-05-12T04:52:30.707Z,53.25
2023-05-12T04:53:34.705Z,52.84
2023-05-12T04:54:38.884Z,53.19
2023-05-12T04:55:40.951Z,53.63
2023-05-12T04:56:43.670Z,53.33
2023-05-12T04:57:46.175Z,53.06
2023-05-12T04:58:49.039Z,53.22
2023-05-12T04:59:51.176Z,53.33
2023-05-12T05:00:54.458Z,53.40
2023-05-12T05:01:56.955Z,53.79
2023-05-12T05:03:01.152Z,53.84
2023-05-12T05:04:03.116Z,53.70
2023-05-12T05:05:08.416Z,53.78
2023-05-12T05:06:10.540Z,53.85
2023-05-12T05:07:13.424Z,53.76
2023-05-12T05:08:15.352Z,54.04
2023-05-12T05:09:18.131Z,53.25
2023-05-12T05:10:19.977Z,53.62
2023-05-12T05:11:24.414Z,53.43
2023-05-12T05:12:26.220Z,53.43
2023-05-12T05:13:29.013Z,53.97
2023-05-12T05:14:30.951Z,53.67
2023-05-12T05:15:33.824Z,53.64
2023-05-12T05:16:35.692Z,54.14
2023-05-12T05:17:39.105Z,53.64
2023-05-12T05:18:46.460Z,53.79
2023-05-12T05:19:57.421Z,53.85
2023-05-12T05:21:02.876Z,54.24
2023-05-12T05:22:05.259Z,54.38
2023-05-12T05:23:08.986Z,54.82
2023-05-12T05:24:10.908Z,54.63
2023-05-12T05:25:15.290Z,54.52
2023-05-12T05:26:17.087Z,54.24
2023-05-12T05:27:19.947Z,53.57
2023-05-12T05:28:23.936Z,54.15
2023-05-12T05:29:26.600Z,53.93
2023-05-12T05:30:29.517Z,53.67
2023-05-12T05:31:31.327Z,53.63
2023-05-12T05:32:36.009Z,53.31
2023-05-12T05:33:37.926Z,52.66
2023-05-12T05:34:40.955Z,52.37
2023-05-12T05:35:43.014Z,52.14
2023-05-12T05:36:48.617Z,52.15
2023-05-12T05:37:53.694Z,52.15
2023-05-12T05:38:57.243Z,52.09
2023-05-12T05:39:59.063Z,51.99
2023-05-12T05:41:01.845Z,51.61
2023-05-12T05:42:03.967Z,51.09
2023-05-12T05:43:06.944Z,51.12
2023-05-12T05:44:08.904Z,50.71
2023-05-12T05:45:12.725Z,50.78
2023-05-12T05:46:14.894Z,50.70
2023-05-12T05:47:17.779Z,50.70
2023-05-12T05:48:19.740Z,50.69
2023-05-12T05:49:23.360Z,50.59
2023-05-12T05:50:25.275Z,49.83
2023-05-12T05:51:28.186Z,49.89
2023-05-12T05:52:31.457Z,49.72
2023-05-12T05:53:34.902Z,49.26
2023-05-12T05:54:36.752Z,49.07
2023-05-12T05:55:40.215Z,48.73
2023-05-12T05:56:42.102Z,48.75
2023-05-12T05:57:44.898Z,49.13
2023-05-12T05:58:47.841Z,48.96
2023-05-12T05:59:50.710Z,48.52
2023-05-12T06:00:53.610Z,48.79
2023-05-12T06:01:55.660Z,48.69
2023-05-12T06:02:58.565Z,48.34
2023-05-12T06:04:00.586Z,48.52
2023-05-12T06:05:03.668Z,48.25
2023-05-12T06:06:07.046Z,48.19
2023-05-12T06:07:08.939Z,47.79
2023-05-12T06:08:13.779Z,47.40
2023-05-12T06:09:16.638Z,47.61
2023-05-12T06:10:19.822Z,47.81
2023-05-12T06:11:21.999Z,47.64
2023-05-12T06:12:24.863Z,47.52
2023-05-12T06:13:26.671Z,47.56
2023-05-12T06:14:30.103Z,47.16
2023-05-12T06:15:31.912Z,46.51
2023-05-12T06:16:34.729Z,46.45
2023-05-12T06:17:36.759Z,46.46
2023-05-12T06:18:39.718Z,46.41
2023-05-12T06:19:41.599Z,45.67
2023-05-12T06:20:44.462Z,45.33
2023-05-12T06:21:46.214Z,45.20
2023-05-12T06:22:49.085Z,45.47
2023-05-12T06:23:56.109Z,45.76
2023-05-12T06:24:58.906Z,45.79
2023-05-12T06:26:00.724Z,45.40
2023-05-12T06:27:04.093Z,45.81
2023-05-12T06:28:07.060Z,45.63
2023-05-12T06:29:10.730Z,45.39
2023-05-12T06:30:15.799Z,45.04
2023-05-12T06:31:19.104Z,44.39
2023-05-12T06:32:22.784Z,44.75
2023-05-12T06:33:25.660Z,44.33
2023-05-12T06:34:27.740Z,44.33
2023-05-12T06:35:30.547Z,44.19
2023-05-12T06:36:33.432Z,44.04
2023-05-12T06:37:36.198Z,44.15
2023-05-12T06:38:39.095Z,43.73
2023-05-12T06:39:42.358Z,43.50
2023-05-12T06:40:45.336Z,43.32
2023-05-12T06:41:47.131Z,43.15
2023-05-12T06:42:57.248Z,43.24
2023-05-12T06:44:02.369Z,43.07
2023-05-12T06:45:06.411Z,42.92
2023-05-12T06:46:09.541Z,42.88
2023-05-12T06:47:11.454Z,42.95
2023-05-12T06:48:14.310Z,43.19
2023-05-12T06:49:16.100Z,42.79
2023-05-12T06:50:18.985Z,43.24
2023-05-12T06:51:25.196Z,42.82
2023-05-12T06:52:27.185Z,42.41
2023-05-12T06:53:30.033Z,42.53
2023-05-12T06:54:31.803Z,42.62
2023-05-12T06:55:36.122Z,42.66
2023-05-12T06:56:38.072Z,42.07
2023-05-12T06:57:41.368Z,42.01
2023-05-12T06:58:43.350Z,41.71
2023-05-12T06:59:46.175Z,41.73
2023-05-12T07:00:48.794Z,41.68
2023-05-12T07:01:51.758Z,41.91
2023-05-12T07:02:53.749Z,41.79
2023-05-12T07:03:57.198Z,41.71
2023-05-12T07:05:00.219Z,41.68
2023-05-12T07:06:02.041Z,41.85
2023-05-12T07:07:05.194Z,41.46
2023-05-12T07:08:07.589Z,41.54
2023-05-12T07:09:10.361Z,40.78
2023-05-12T07:10:12.214Z,41.50
2023-05-12T07:11:20.033Z,41.58
2023-05-12T07:12:38.434Z,41.35
2023-05-12T07:13:41.158Z,41.63
2023-05-12T07:14:43.057Z,41.46
2023-05-12T07:15:45.946Z,40.97
2023-05-12T07:16:47.725Z,40.52
2023-05-12T07:17:50.748Z,40.50
2023-05-12T07:18:52.647Z,40.11
2023-05-12T07:19:55.620Z,40.54
2023-05-12T07:20:57.396Z,40.36
2023-05-12T07:22:00.143Z,40.23
2023-05-12T07:23:03.115Z,39.73
2023-05-12T07:24:07.063Z,39.36
2023-05-12T07:25:09.257Z,39.25
2023-05-12T07:26:12.028Z,39.62
2023-05-12T07:27:15.186Z,39.67
2023-05-12T07:28:18.539Z,39.50
2023-05-12T07:29:22.437Z,39.29
2023-05-12T07:30:24.232Z,39.65
2023-05-12T07:31:27.241Z,39.54
2023-05-12T07:32:29.035Z,39.83
2023-05-12T07:33:32.399Z,39.78
2023-05-12T07:34:34.150Z,39.85
2023-05-12T07:35:36.903Z,38.96
2023-05-12T07:36:38.735Z,39.01
2023-05-12T07:37:42.409Z,39.02
2023-05-12T07:38:44.725Z,39.18
2023-05-12T07:39:47.462Z,38.57
2023-05-12T07:40:49.416Z,38.56
2023-05-12T07:41:54.198Z,38.31
2023-05-12T07:42:58.387Z,38.98
2023-05-12T07:44:00.161Z,38.85
2023-05-12T07:45:02.934Z,39.03
2023-05-12T07:46:04.790Z,38.80
2023-05-12T07:47:07.639Z,39.36
2023-05-12T07:48:09.542Z,39.25
2023-05-12T07:49:12.694Z,38.33
2023-05-12T07:50:14.452Z,38.06
2023-05-12T07:51:17.200Z,38.18
2023-05-12T07:52:19.033Z,38.23
2023-05-12T07:53:21.887Z,38.99
2023-05-12T07:54:23.726Z,38.86
2023-05-12T07:55:26.755Z,38.81
2023-05-12T07:56:28.583Z,38.71
2023-05-12T07:57:31.421Z,38.75
2023-05-12T07:58:34.559Z,39.35
2023-05-12T07:59:37.405Z,39.13
2023-05-12T08:00:39.517Z,38.85
2023-05-12T08:01:42.775Z,38.48
2023-05-12T08:02:44.863Z,38.51
2023-05-12T08:03:47.773Z,38.28
2023-05-12T08:04:50.786Z,38.34
2023-05-12T08:05:53.652Z,38.35
2023-05-12T08:06:55.576Z,38.17
2023-05-12T08:07:58.369Z,37.55
2023-05-12T08:09:01.253Z,37.72
2023-05-12T08:10:03.475Z,38.02
2023-05-12T08:11:06.446Z,37.89
2023-05-12T08:12:14.145Z,37.00
2023-05-12T08:13:16.844Z,37.45
2023-05-12T08:14:22.319Z,37.95
2023-05-12T08:15:25.136Z,37.92
2023-05-12T08:16:27.880Z,38.26
2023-05-12T08:17:30.733Z,37.75
2023-05-12T08:18:33.574Z,37.93
2023-05-12T08:19:35.410Z,37.41
2023-05-12T08:20:38.228Z,36.88
2023-05-12T08:21:40.256Z,37.30
2023-05-12T08:22:50.781Z,37.21
2023-05-12T08:23:53.024Z,37.66
2023-05-12T08:24:55.760Z,37.93
2023-05-12T08:25:58.503Z,37.72
2023-05-12T08:27:00.325Z,37.42
2023-05-12T08:28:03.522Z,37.50
2023-05-12T08:29:06.563Z,37.76
2023-05-12T08:30:12.009Z,37.57
2023-05-12T08:31:14.890Z,37.57
2023-05-12T08:32:16.742Z,37.46
2023-05-12T08:33:19.590Z,37.46
2023-05-12T08:34:22.382Z,37.18
2023-05-12T08:35:25.723Z,36.67
2023-05-12T08:36:28.657Z,36.72
2023-05-12T08:37:34.169Z,36.54
2023-05-12T08:38:36.495Z,36.71
2023-05-12T08:39:39.765Z,36.53
2023-05-12T08:40:48.262Z,36.15
2023-05-12T08:41:54.222Z,36.19
2023-05-12T08:43:03.055Z,35.81
2023-05-12T08:44:05.384Z,36.22
2023-05-12T08:45:11.154Z,36.51
2023-05-12T08:46:14.188Z,36.82
2023-05-12T08:47:19.773Z,36.47
2023-05-12T08:48:21.754Z,37.08
2023-05-12T08:49:26.101Z,36.79
2023-05-12T08:50:28.502Z,36.43
2023-05-12T08:51:33.002Z,36.99
2023-05-12T08:52:36.703Z,36.75
2023-05-12T08:53:39.268Z,36.36
2023-05-12T08:54:55.050Z,36.61
2023-05-12T08:57:09.596Z,36.48
2023-05-12T08:57:21.736Z,36.51
2023-05-12T08:58:37.574Z,36.82
2023-05-12T08:59:45.246Z,36.48
2023-05-12T09:00:51.787Z,35.33
2023-05-12T09:01:55.057Z,35.91
2023-05-12T09:02:58.503Z,36.00
2023-05-12T09:04:00.363Z,36.26
2023-05-12T09:05:03.119Z,35.84
2023-05-12T09:06:07.303Z,36.11
2023-05-12T09:07:09.249Z,35.72
2023-05-12T09:08:12.388Z,35.34
2023-05-12T09:09:15.967Z,35.17
2023-05-12T09:10:33.501Z,35.82
2023-05-12T09:11:37.465Z,35.90
2023-05-12T09:12:39.331Z,35.68
2023-05-12T09:13:48.186Z,35.49
2023-05-12T09:14:56.025Z,35.99
2023-05-12T09:16:00.920Z,35.96
2023-05-12T09:17:05.113Z,35.76
2023-05-12T09:18:07.049Z,35.94
2023-05-12T09:19:09.905Z,35.39
2023-05-12T09:20:23.869Z,35.41
2023-05-12T09:21:34.558Z,35.25
2023-05-12T09:22:36.686Z,35.35
2023-05-12T09:23:39.491Z,35.21
2023-05-12T09:24:42.340Z,35.02
2023-05-12T09:25:44.886Z,35.81
2023-05-12T09:26:49.374Z,36.25
2023-05-12T09:27:55.326Z,35.31
2023-05-12T09:29:08.072Z,35.54
2023-05-12T09:30:10.657Z,35.87
2023-05-12T09:31:19.042Z,35.24
2023-05-12T09:32:31.944Z,35.67
2023-05-12T09:33:36.090Z,35.28
2023-05-12T09:34:41.414Z,34.57
2023-05-12T09:35:44.530Z,34.63
2023-05-12T09:36:56.654Z,35.04
2023-05-12T09:38:05.838Z,34.72
2023-05-12T09:39:10.300Z,34.52
2023-05-12T09:40:13.721Z,34.46
2023-05-12T09:41:23.940Z,34.04
2023-05-12T09:42:30.254Z,34.01
2023-05-12T09:43:32.111Z,34.44
2023-05-12T09:44:34.840Z,34.39
2023-05-12T09:45:38.733Z,34.69
2023-05-12T09:46:43.003Z,34.37
2023-05-12T09:47:45.499Z,34.41
2023-05-12T09:48:48.797Z,34.22
2023-05-12T09:49:51.917Z,34.39
2023-05-12T09:50:54.668Z,34.46
2023-05-12T09:51:57.166Z,34.96
2023-05-12T09:53:00.007Z,34.65
2023-05-12T09:54:01.839Z,34.63
2023-05-12T09:55:08.360Z,34.75
2023-05-12T09:56:11.868Z,35.03
2023-05-12T09:57:17.316Z,34.52
2023-05-12T09:58:20.453Z,34.50
2023-05-12T09:59:26.711Z,34.30
2023-05-12T10:00:41.205Z,33.87
2023-05-12T10:01:50.868Z,33.71
2023-05-12T10:02:53.463Z,33.20
2023-05-12T10:03:57.712Z,33.18
2023-05-12T10:05:03.406Z,33.48
2023-05-12T10:06:07.995Z,33.06
2023-05-12T10:07:13.115Z,33.38
2023-05-12T10:08:21.271Z,33.94
2023-05-12T10:09:26.646Z,34.46
2023-05-12T10:10:28.699Z,34.08
2023-05-12T10:11:31.582Z,33.04
2023-05-12T10:12:34.809Z,33.48
2023-05-12T10:13:37.810Z,32.89
2023-05-12T10:14:40.749Z,32.76
2023-05-12T10:15:44.069Z,32.54
2023-05-12T10:16:47.405Z,32.84
2023-05-12T10:17:53.080Z,32.79
2023-05-12T10:18:56.970Z,32.71
2023-05-12T10:20:00.257Z,31.96
2023-05-12T10:21:02.788Z,31.82
2023-05-12T10:22:06.959Z,32.06
2023-05-12T10:23:09.495Z,32.62
2023-05-12T10:24:12.309Z,33.18
2023-05-12T10:25:15.065Z,32.78
2023-05-12T10:26:18.305Z,32.40
2023-05-12T10:27:20.583Z,32.78
2023-05-12T10:28:23.307Z,32.32
2023-05-12T10:29:29.492Z,31.56
2023-05-12T10:30:32.693Z,31.30
2023-05-12T10:31:48.292Z,31.27
2023-05-12T10:32:52.941Z,31.54
2023-05-12T10:33:59.481Z,31.07
2023-05-12T10:35:08.058Z,31.52
2023-05-12T10:36:20.297Z,30.93
2023-05-12T10:37:23.378Z,31.81
2023-05-12T10:38:26.395Z,31.65
2023-05-12T10:39:28.882Z,31.68
2023-05-12T10:40:37.478Z,31.28
2023-05-12T10:41:39.271Z,32.26
2023-05-12T10:42:43.462Z,32.47
2023-05-12T10:43:49.004Z,31.87
2023-05-12T10:44:52.321Z,31.89
2023-05-12T10:46:07.442Z,31.02
2023-05-12T10:47:14.120Z,31.36
2023-05-12T10:48:17.299Z,31.96
2023-05-12T10:49:20.159Z,32.70
2023-05-12T10:50:28.706Z,32.31
2023-05-12T10:51:33.293Z,32.35
2023-05-12T10:52:35.367Z,32.44
2023-05-12T10:53:49.817Z,32.75
2023-05-12T10:55:01.248Z,32.44
2023-05-12T10:56:07.325Z,32.77
2023-05-12T10:57:16.058Z,32.59
2023-05-12T10:58:21.162Z,32.47
2023-05-12T10:59:25.454Z,32.75
2023-05-12T11:00:28.953Z,32.85
2023-05-12T11:01:32.517Z,32.74
2023-05-12T11:02:38.582Z,32.31
2023-05-12T11:03:43.751Z,32.31
2023-05-12T11:04:49.090Z,32.56
2023-05-12T11:06:00.929Z,32.76
2023-05-12T11:07:06.022Z,32.66
2023-05-12T11:08:09.591Z,32.75
2023-05-12T11:09:13.188Z,32.62
2023-05-12T11:10:17.789Z,33.18
2023-05-12T11:11:20.244Z,33.33
2023-05-12T11:12:23.187Z,33.66
2023-05-12T11:13:26.141Z,33.34
2023-05-12T11:14:28.194Z,33.25
2023-05-12T11:15:31.304Z,33.25
2023-05-12T11:16:33.139Z,32.29
2023-05-12T11:17:40.081Z,31.90
2023-05-12T11:18:43.262Z,32.40
2023-05-12T11:19:47.650Z,32.35
2023-05-12T11:20:50.760Z,31.92
2023-05-12T11:21:52.816Z,31.94
2023-05-12T11:22:56.072Z,31.88
2023-05-12T11:23:59.047Z,31.26
2023-05-12T11:25:10.243Z,30.74
2023-05-12T11:26:18.292Z,31.23
2023-05-12T11:27:22.562Z,31.91
2023-05-12T11:28:25.743Z,32.03
2023-05-12T11:29:27.683Z,31.97
2023-05-12T11:30:30.404Z,32.30
2023-05-12T11:31:32.264Z,32.32
2023-05-12T11:32:35.048Z,33.04
2023-05-12T11:33:36.813Z,33.53
2023-05-12T11:34:41.395Z,33.77
2023-05-12T11:35:43.270Z,33.64
2023-05-12T11:36:46.549Z,33.09
2023-05-12T11:37:48.293Z,32.89
2023-05-12T11:38:51.678Z,32.44
2023-05-12T11:39:53.468Z,32.82
2023-05-12T11:40:56.215Z,33.73
2023-05-12T11:42:09.462Z,33.99
2023-05-12T11:43:21.217Z,32.46
2023-05-12T11:44:24.673Z,32.60
2023-05-12T11:45:29.145Z,32.11
2023-05-12T11:46:31.017Z,32.09
2023-05-12T11:47:33.808Z,31.86
2023-05-12T11:48:36.599Z,31.76
2023-05-12T11:49:47.611Z,31.74
2023-05-12T11:50:51.353Z,31.99
2023-05-12T11:51:53.958Z,32.17
2023-05-12T11:52:57.733Z,32.44
2023-05-12T11:53:59.470Z,32.90
2023-05-12T11:55:03.175Z,32.63
2023-05-12T11:56:06.510Z,32.88
2023-05-12T11:57:08.313Z,32.80
2023-05-12T11:58:11.163Z,32.62
2023-05-12T11:59:14.394Z,32.77
2023-05-12T12:00:17.240Z,32.40
2023-05-12T12:01:20.146Z,32.59
2023-05-12T12:02:22.284Z,32.73
2023-05-12T12:03:25.797Z,32.59
2023-05-12T12:04:34.926Z,32.47
2023-05-12T12:05:39.673Z,32.26
2023-05-12T12:06:45.689Z,32.48
2023-05-12T12:07:48.471Z,32.85
2023-05-12T12:08:54.835Z,32.75
2023-05-12T12:09:58.061Z,32.72
2023-05-12T12:11:02.755Z,33.07
2023-05-12T12:12:08.496Z,33.09
2023-05-12T12:13:11.305Z,33.26
2023-05-12T12:14:13.405Z,32.71
2023-05-12T12:15:28.285Z,32.59
2023-05-12T12:16:31.421Z,32.77
2023-05-12T12:17:34.342Z,32.72
2023-05-12T12:18:37.190Z,32.88
2023-05-12T12:19:39.350Z,32.84
2023-05-12T12:20:43.506Z,32.75
2023-05-12T12:21:46.219Z,32.67
2023-05-12T12:22:48.242Z,32.54
2023-05-12T12:23:51.891Z,32.66
2023-05-12T12:24:53.755Z,32.69
2023-05-12T12:25:56.450Z,32.62
2023-05-12T12:26:58.237Z,32.46
2023-05-12T12:28:00.967Z,32.76
2023-05-12T12:29:02.738Z,32.52
2023-05-12T12:30:06.402Z,32.51
2023-05-12T12:31:09.502Z,32.70
2023-05-12T12:32:11.364Z,32.66
2023-05-12T12:33:14.231Z,32.66
2023-05-12T12:34:16.179Z,32.53
2023-05-12T12:35:19.098Z,32.57
2023-05-12T12:36:22.449Z,32.28
2023-05-12T12:37:25.376Z,32.33
2023-05-12T12:38:28.096Z,32.52
2023-05-12T12:39:29.944Z,32.54
2023-05-12T12:40:32.685Z,32.42
2023-05-12T12:41:35.455Z,32.41
2023-05-12T12:42:38.280Z,32.49
2023-05-12T12:43:41.035Z,31.92
2023-05-12T12:44:46.018Z,31.89
2023-05-12T12:45:50.935Z,32.09
2023-05-12T12:46:53.656Z,31.87
2023-05-12T12:47:55.602Z,32.19
2023-05-12T12:48:58.484Z,32.07
2023-05-12T12:50:00.324Z,32.42
2023-05-12T12:51:03.071Z,32.14
2023-05-12T12:52:06.685Z,32.08
2023-05-12T12:53:09.798Z,31.89
2023-05-12T12:54:11.615Z,32.50
2023-05-12T12:55:14.710Z,32.42
2023-05-12T12:56:16.557Z,31.74
2023-05-12T12:57:20.883Z,31.92
2023-05-12T12:58:23.688Z,32.22
2023-05-12T12:59:25.503Z,31.93
2023-05-12T13:00:28.406Z,32.08
2023-05-12T13:01:30.280Z,32.33
2023-05-12T13:02:33.165Z,32.73
2023-05-12T13:03:35.063Z,32.61
2023-05-12T13:04:37.892Z,32.41
2023-05-12T13:05:40.767Z,31.68
2023-05-12T13:06:42.571Z,31.44
2023-05-12T13:07:47.516Z,31.53
2023-05-12T13:08:50.504Z,31.31
2023-05-12T13:09:52.246Z,31.67
2023-05-12T13:10:55.097Z,32.02
2023-05-12T13:11:57.975Z,31.90
2023-05-12T13:13:00.698Z,31.72
2023-05-12T13:14:04.199Z,31.84
2023-05-12T13:15:08.307Z,31.64
2023-05-12T13:16:10.095Z,31.74
2023-05-12T13:17:15.270Z,31.70
2023-05-12T13:18:18.279Z,31.30
2023-05-12T13:19:21.631Z,31.30
2023-05-12T13:20:23.526Z,31.40
2023-05-12T13:21:26.317Z,31.43
2023-05-12T13:22:29.149Z,31.54
2023-05-12T13:23:32.346Z,31.73
2023-05-12T13:24:35.076Z,32.06
2023-05-12T13:25:37.783Z,32.37
2023-05-12T13:26:39.664Z,32.38
2023-05-12T13:27:42.400Z,32.90
2023-05-12T13:28:44.137Z,33.59
2023-05-12T13:29:47.213Z,32.95
2023-05-12T13:30:49.190Z,33.42
2023-05-12T13:31:52.058Z,32.90
2023-05-12T13:32:54.094Z,32.75
2023-05-12T13:33:57.007Z,31.95
2023-05-12T13:34:59.090Z,31.88
2023-05-12T13:36:01.907Z,32.30
2023-05-12T13:37:03.779Z,32.14
2023-05-12T13:38:06.677Z,32.09
2023-05-12T13:39:10.278Z,31.69
2023-05-12T13:40:13.768Z,31.35